sensor_id;sensor_type;location;lat;lon;timestamp;pressure;altitude;pressure_sealevel;temperature;humidity
4576;BME280;2300;51.874;8.430;2023-12-22T00:00:24;98908.47;;;5.06;86.50
4576;BME280;2300;51.874;8.430;2023-12-22T00:02:51;98894.13;;;5.10;86.04
4576;BME280;2300;51.874;8.430;2023-12-22T00:05:19;98898.53;;;4.88;87.26
4576;BME280;2300;51.874;8.430;2023-12-22T00:07:45;98884.84;;;4.83;87.35
4576;BME280;2300;51.874;8.430;2023-12-22T00:10:12;98881.53;;;4.81;87.50
4576;BME280;2300;51.874;8.430;2023-12-22T00:12:39;98875.72;;;4.89;87.27
4576;BME280;2300;51.874;8.430;2023-12-22T00:15:06;98890.50;;;4.93;87.66
4576;BME280;2300;51.874;8.430;2023-12-22T00:17:32;98903.03;;;4.94;88.44
4576;BME280;2300;51.874;8.430;2023-12-22T00:19:58;98908.59;;;4.87;88.47
4576;BME280;2300;51.874;8.430;2023-12-22T00:22:30;98904.22;;;4.98;88.66
4576;BME280;2300;51.874;8.430;2023-12-22T00:24:56;98896.66;;;5.00;88.86
4576;BME280;2300;51.874;8.430;2023-12-22T00:27:23;98892.03;;;5.12;88.89
4576;BME280;2300;51.874;8.430;2023-12-22T00:29:49;98902.19;;;5.17;88.34
4576;BME280;2300;51.874;8.430;2023-12-22T00:32:16;98900.28;;;5.17;88.77
4576;BME280;2300;51.874;8.430;2023-12-22T00:34:42;98907.03;;;5.15;88.19
4576;BME280;2300;51.874;8.430;2023-12-22T00:37:09;98908.44;;;5.17;87.32
4576;BME280;2300;51.874;8.430;2023-12-22T00:39:38;98898.75;;;5.21;86.71
4576;BME280;2300;51.874;8.430;2023-12-22T00:42:04;98909.50;;;5.16;85.42
4576;BME280;2300;51.874;8.430;2023-12-22T00:44:31;98910.91;;;5.19;84.00
4576;BME280;2300;51.874;8.430;2023-12-22T00:46:57;98920.00;;;5.24;82.78
4576;BME280;2300;51.874;8.430;2023-12-22T00:49:24;98927.94;;;5.26;82.00
4576;BME280;2300;51.874;8.430;2023-12-22T00:51:50;98928.78;;;5.26;81.01
4576;BME280;2300;51.874;8.430;2023-12-22T00:54:17;98923.00;;;5.23;80.45
4576;BME280;2300;51.874;8.430;2023-12-22T00:56:44;98944.38;;;5.31;80.18
4576;BME280;2300;51.874;8.430;2023-12-22T00:59:10;98946.16;;;5.25;81.17
4576;BME280;2300;51.874;8.430;2023-12-22T01:01:37;98950.44;;;5.21;81.20
4576;BME280;2300;51.874;8.430;2023-12-22T01:04:03;98919.44;;;5.22;81.00
4576;BME280;2300;51.874;8.430;2023-12-22T01:06:30;98910.69;;;5.20;80.95
4576;BME280;2300;51.874;8.430;2023-12-22T01:08:57;98927.38;;;5.12;81.14
4576;BME280;2300;51.874;8.430;2023-12-22T01:11:23;98921.25;;;5.05;81.00
4576;BME280;2300;51.874;8.430;2023-12-22T01:13:51;98931.28;;;4.93;81.60
4576;BME280;2300;51.874;8.430;2023-12-22T01:16:18;98922.06;;;4.94;81.53
4576;BME280;2300;51.874;8.430;2023-12-22T01:18:46;98935.34;;;4.90;80.94
4576;BME280;2300;51.874;8.430;2023-12-22T01:21:13;98926.94;;;4.92;80.76
4576;BME280;2300;51.874;8.430;2023-12-22T01:23:39;98918.19;;;4.90;80.26
4576;BME280;2300;51.874;8.430;2023-12-22T01:26:06;98927.41;;;5.01;79.12
4576;BME280;2300;51.874;8.430;2023-12-22T01:28:33;98932.97;;;5.06;77.84
4576;BME280;2300;51.874;8.430;2023-12-22T01:31:01;98925.81;;;5.28;77.89
4576;BME280;2300;51.874;8.430;2023-12-22T01:33:27;98929.59;;;5.27;78.03
4576;BME280;2300;51.874;8.430;2023-12-22T01:35:54;98923.09;;;5.28;79.10
4576;BME280;2300;51.874;8.430;2023-12-22T01:38:21;98935.16;;;5.20;79.55
4576;BME280;2300;51.874;8.430;2023-12-22T01:40:48;98951.38;;;5.27;80.94
4576;BME280;2300;51.874;8.430;2023-12-22T01:43:14;98965.44;;;5.36;81.12
4576;BME280;2300;51.874;8.430;2023-12-22T01:45:47;98972.44;;;5.31;81.10
4576;BME280;2300;51.874;8.430;2023-12-22T01:48:15;98987.09;;;5.30;81.49
4576;BME280;2300;51.874;8.430;2023-12-22T01:50:42;98976.94;;;5.26;82.86
4576;BME280;2300;51.874;8.430;2023-12-22T01:53:10;98993.25;;;5.26;82.76
4576;BME280;2300;51.874;8.430;2023-12-22T01:55:36;98979.56;;;4.86;83.59
4576;BME280;2300;51.874;8.430;2023-12-22T01:58:04;98981.56;;;4.14;83.98
4576;BME280;2300;51.874;8.430;2023-12-22T02:00:30;98987.97;;;3.42;86.81
4576;BME280;2300;51.874;8.430;2023-12-22T02:02:57;98999.44;;;3.01;88.83
4576;BME280;2300;51.874;8.430;2023-12-22T02:05:25;99003.91;;;2.70;92.08
4576;BME280;2300;51.874;8.430;2023-12-22T02:07:52;99008.75;;;2.68;92.79
4576;BME280;2300;51.874;8.430;2023-12-22T02:10:18;99015.19;;;2.67;94.03
4576;BME280;2300;51.874;8.430;2023-12-22T02:12:45;99005.78;;;2.70;95.49
4576;BME280;2300;51.874;8.430;2023-12-22T02:15:12;99024.00;;;2.88;96.58
4576;BME280;2300;51.874;8.430;2023-12-22T02:17:43;98994.63;;;3.03;96.70
4576;BME280;2300;51.874;8.430;2023-12-22T02:20:12;99000.81;;;3.28;96.77
4576;BME280;2300;51.874;8.430;2023-12-22T02:22:40;98982.44;;;3.48;96.30
4576;BME280;2300;51.874;8.430;2023-12-22T02:25:07;98983.00;;;3.69;94.77
4576;BME280;2300;51.874;8.430;2023-12-22T02:27:38;98982.50;;;3.90;94.70
4576;BME280;2300;51.874;8.430;2023-12-22T02:30:09;98981.47;;;3.91;93.12
4576;BME280;2300;51.874;8.430;2023-12-22T02:32:42;99012.63;;;4.18;92.65
4576;BME280;2300;51.874;8.430;2023-12-22T02:35:11;98975.41;;;3.89;90.32
4576;BME280;2300;51.874;8.430;2023-12-22T02:37:42;99004.91;;;4.15;89.89
4576;BME280;2300;51.874;8.430;2023-12-22T02:40:10;99009.16;;;4.11;90.69
4576;BME280;2300;51.874;8.430;2023-12-22T02:42:38;99016.81;;;4.02;90.73
4576;BME280;2300;51.874;8.430;2023-12-22T02:45:06;99022.84;;;4.04;91.78
4576;BME280;2300;51.874;8.430;2023-12-22T02:47:32;99007.84;;;4.02;92.22
4576;BME280;2300;51.874;8.430;2023-12-22T02:49:59;99006.44;;;4.11;91.56
4576;BME280;2300;51.874;8.430;2023-12-22T02:52:25;99001.28;;;4.21;90.62
4576;BME280;2300;51.874;8.430;2023-12-22T02:54:53;99010.19;;;4.28;89.93
4576;BME280;2300;51.874;8.430;2023-12-22T02:57:20;99007.75;;;4.38;89.43
4576;BME280;2300;51.874;8.430;2023-12-22T02:59:46;98961.50;;;4.27;88.89
4576;BME280;2300;51.874;8.430;2023-12-22T03:02:13;99013.56;;;4.54;88.15
4576;BME280;2300;51.874;8.430;2023-12-22T03:04:39;99002.59;;;4.60;87.58
4576;BME280;2300;51.874;8.430;2023-12-22T03:07:06;99006.50;;;4.64;85.39
4576;BME280;2300;51.874;8.430;2023-12-22T03:09:32;98998.13;;;4.66;85.18
4576;BME280;2300;51.874;8.430;2023-12-22T03:12:01;98997.28;;;4.65;83.33
4576;BME280;2300;51.874;8.430;2023-12-22T03:14:28;99006.97;;;4.73;82.45
4576;BME280;2300;51.874;8.430;2023-12-22T03:16:55;99005.66;;;4.64;81.73
4576;BME280;2300;51.874;8.430;2023-12-22T03:19:21;99006.97;;;4.50;82.16
4576;BME280;2300;51.874;8.430;2023-12-22T03:21:48;99019.50;;;4.62;80.96
4576;BME280;2300;51.874;8.430;2023-12-22T03:24:15;99009.19;;;4.53;81.23
4576;BME280;2300;51.874;8.430;2023-12-22T03:26:41;98997.88;;;4.56;81.57
4576;BME280;2300;51.874;8.430;2023-12-22T03:29:09;98999.97;;;4.54;81.87
4576;BME280;2300;51.874;8.430;2023-12-22T03:31:36;99016.19;;;4.72;81.00
4576;BME280;2300;51.874;8.430;2023-12-22T03:34:02;99030.75;;;4.66;81.98
4576;BME280;2300;51.874;8.430;2023-12-22T03:36:29;99037.31;;;4.46;83.78
4576;BME280;2300;51.874;8.430;2023-12-22T03:38:55;99021.34;;;4.20;86.86
4576;BME280;2300;51.874;8.430;2023-12-22T03:41:22;99029.00;;;4.12;88.52
4576;BME280;2300;51.874;8.430;2023-12-22T03:43:48;99009.78;;;4.13;89.08
4576;BME280;2300;51.874;8.430;2023-12-22T03:46:16;99010.22;;;4.10;90.51
4576;BME280;2300;51.874;8.430;2023-12-22T03:48:43;99007.19;;;4.18;90.88
4576;BME280;2300;51.874;8.430;2023-12-22T03:51:10;99005.53;;;4.17;90.58
4576;BME280;2300;51.874;8.430;2023-12-22T03:53:38;98995.72;;;4.16;90.97
4576;BME280;2300;51.874;8.430;2023-12-22T03:56:07;98992.16;;;4.16;91.10
4576;BME280;2300;51.874;8.430;2023-12-22T03:58:34;98989.34;;;4.22;90.44
4576;BME280;2300;51.874;8.430;2023-12-22T04:01:00;99004.41;;;4.36;90.14
4576;BME280;2300;51.874;8.430;2023-12-22T04:03:28;98987.41;;;4.41;89.59
4576;BME280;2300;51.874;8.430;2023-12-22T04:05:54;98989.97;;;4.36;89.84
4576;BME280;2300;51.874;8.430;2023-12-22T04:08:21;98994.41;;;4.48;89.28
4576;BME280;2300;51.874;8.430;2023-12-22T04:10:48;98979.38;;;4.34;87.84
4576;BME280;2300;51.874;8.430;2023-12-22T04:13:14;98982.97;;;4.58;87.06
4576;BME280;2300;51.874;8.430;2023-12-22T04:15:41;98983.31;;;4.62;87.08
4576;BME280;2300;51.874;8.430;2023-12-22T04:18:08;98994.91;;;4.57;87.87
4576;BME280;2300;51.874;8.430;2023-12-22T04:20:35;98995.03;;;4.51;87.16
4576;BME280;2300;51.874;8.430;2023-12-22T04:23:02;99002.09;;;4.52;87.22
4576;BME280;2300;51.874;8.430;2023-12-22T04:25:29;99003.06;;;4.45;87.37
4576;BME280;2300;51.874;8.430;2023-12-22T04:27:55;99025.25;;;4.42;87.69
4576;BME280;2300;51.874;8.430;2023-12-22T04:30:22;98999.19;;;4.23;87.29
4576;BME280;2300;51.874;8.430;2023-12-22T04:32:48;99023.41;;;4.36;87.51
4576;BME280;2300;51.874;8.430;2023-12-22T04:35:15;99037.16;;;4.41;88.30
4576;BME280;2300;51.874;8.430;2023-12-22T04:37:43;99045.81;;;4.38;88.73
4576;BME280;2300;51.874;8.430;2023-12-22T04:40:10;99044.13;;;4.37;89.29
4576;BME280;2300;51.874;8.430;2023-12-22T04:42:37;99030.13;;;4.22;90.77
4576;BME280;2300;51.874;8.430;2023-12-22T04:45:04;99036.25;;;4.18;91.47
4576;BME280;2300;51.874;8.430;2023-12-22T04:47:30;99050.94;;;4.28;91.04
4576;BME280;2300;51.874;8.430;2023-12-22T04:49:57;99053.97;;;4.20;92.00
4576;BME280;2300;51.874;8.430;2023-12-22T04:52:23;99062.91;;;4.09;92.59
4576;BME280;2300;51.874;8.430;2023-12-22T04:54:51;99054.63;;;4.04;92.67
4576;BME280;2300;51.874;8.430;2023-12-22T04:57:18;99041.91;;;3.86;93.35
4576;BME280;2300;51.874;8.430;2023-12-22T04:59:44;98995.84;;;3.43;93.19
4576;BME280;2300;51.874;8.430;2023-12-22T05:02:11;99046.66;;;3.73;93.19
4576;BME280;2300;51.874;8.430;2023-12-22T05:04:37;99038.53;;;3.73;93.59
4576;BME280;2300;51.874;8.430;2023-12-22T05:07:04;99042.81;;;3.62;94.28
4576;BME280;2300;51.874;8.430;2023-12-22T05:09:32;99045.63;;;3.55;94.87
4576;BME280;2300;51.874;8.430;2023-12-22T05:12:00;99047.19;;;3.63;94.71
4576;BME280;2300;51.874;8.430;2023-12-22T05:14:26;99034.91;;;3.60;94.46
4576;BME280;2300;51.874;8.430;2023-12-22T05:16:53;99046.38;;;3.62;95.10
4576;BME280;2300;51.874;8.430;2023-12-22T05:19:20;99047.25;;;3.75;94.78
4576;BME280;2300;51.874;8.430;2023-12-22T05:21:47;99040.78;;;3.76;94.11
4576;BME280;2300;51.874;8.430;2023-12-22T05:24:14;99031.22;;;3.73;93.97
4576;BME280;2300;51.874;8.430;2023-12-22T05:26:41;99027.41;;;3.74;92.97
4576;BME280;2300;51.874;8.430;2023-12-22T05:29:09;99032.34;;;3.66;93.13
4576;BME280;2300;51.874;8.430;2023-12-22T05:31:38;99028.72;;;3.72;93.94
4576;BME280;2300;51.874;8.430;2023-12-22T05:34:05;99043.03;;;3.60;93.21
4576;BME280;2300;51.874;8.430;2023-12-22T05:36:31;99035.66;;;3.49;93.35
4576;BME280;2300;51.874;8.430;2023-12-22T05:38:57;99033.94;;;3.55;93.85
4576;BME280;2300;51.874;8.430;2023-12-22T05:41:24;99055.78;;;3.60;93.09
4576;BME280;2300;51.874;8.430;2023-12-22T05:43:50;99066.94;;;3.70;93.28
4576;BME280;2300;51.874;8.430;2023-12-22T05:46:19;99071.41;;;3.83;93.16
4576;BME280;2300;51.874;8.430;2023-12-22T05:48:45;99061.88;;;3.92;92.09
4576;BME280;2300;51.874;8.430;2023-12-22T05:51:12;99062.38;;;4.00;92.17
4576;BME280;2300;51.874;8.430;2023-12-22T05:53:39;99066.75;;;4.01;91.43
4576;BME280;2300;51.874;8.430;2023-12-22T05:56:16;99051.66;;;4.05;91.12
4576;BME280;2300;51.874;8.430;2023-12-22T05:58:43;99062.91;;;4.09;91.15
4576;BME280;2300;51.874;8.430;2023-12-22T06:01:14;99068.63;;;4.19;90.97
4576;BME280;2300;51.874;8.430;2023-12-22T06:03:42;99088.22;;;4.21;90.66
4576;BME280;2300;51.874;8.430;2023-12-22T06:06:08;99078.56;;;4.25;90.88
4576;BME280;2300;51.874;8.430;2023-12-22T06:08:35;99082.94;;;4.26;91.25
4576;BME280;2300;51.874;8.430;2023-12-22T06:11:03;99081.88;;;4.27;90.62
4576;BME280;2300;51.874;8.430;2023-12-22T06:13:29;99099.03;;;4.28;90.68
4576;BME280;2300;51.874;8.430;2023-12-22T06:15:56;99085.94;;;4.36;89.45
4576;BME280;2300;51.874;8.430;2023-12-22T06:18:22;99079.25;;;4.39;88.94
4576;BME280;2300;51.874;8.430;2023-12-22T06:20:50;99094.25;;;4.41;88.28
4576;BME280;2300;51.874;8.430;2023-12-22T06:23:17;99110.25;;;4.50;87.40
4576;BME280;2300;51.874;8.430;2023-12-22T06:25:43;99122.81;;;4.62;87.49
4576;BME280;2300;51.874;8.430;2023-12-22T06:28:11;99120.91;;;4.63;87.09
4576;BME280;2300;51.874;8.430;2023-12-22T06:30:38;99135.34;;;4.63;86.80
4576;BME280;2300;51.874;8.430;2023-12-22T06:33:04;99125.56;;;4.74;86.62
4576;BME280;2300;51.874;8.430;2023-12-22T06:35:31;99117.75;;;4.77;86.80
4576;BME280;2300;51.874;8.430;2023-12-22T06:38:00;99133.59;;;4.69;86.25
4576;BME280;2300;51.874;8.430;2023-12-22T06:40:29;99128.16;;;4.69;85.94
4576;BME280;2300;51.874;8.430;2023-12-22T06:42:55;99123.81;;;4.79;85.06
4576;BME280;2300;51.874;8.430;2023-12-22T06:45:22;99140.25;;;4.84;84.89
4576;BME280;2300;51.874;8.430;2023-12-22T06:47:48;99148.50;;;4.78;85.40
4576;BME280;2300;51.874;8.430;2023-12-22T06:50:15;99140.34;;;4.78;84.74
4576;BME280;2300;51.874;8.430;2023-12-22T06:52:41;99152.31;;;4.77;84.81
4576;BME280;2300;51.874;8.430;2023-12-22T06:55:09;99156.38;;;4.86;85.28
4576;BME280;2300;51.874;8.430;2023-12-22T06:57:36;99160.13;;;4.85;84.77
4576;BME280;2300;51.874;8.430;2023-12-22T07:00:04;99151.75;;;4.86;84.52
4576;BME280;2300;51.874;8.430;2023-12-22T07:02:31;99152.13;;;4.90;84.45
4576;BME280;2300;51.874;8.430;2023-12-22T07:05:35;99156.63;;;4.96;84.49
4576;BME280;2300;51.874;8.430;2023-12-22T07:08:06;99159.22;;;4.91;84.83
4576;BME280;2300;51.874;8.430;2023-12-22T07:10:34;99156.16;;;4.99;84.38
4576;BME280;2300;51.874;8.430;2023-12-22T07:13:00;99157.06;;;4.93;84.94
4576;BME280;2300;51.874;8.430;2023-12-22T07:15:27;99172.81;;;4.91;84.46
4576;BME280;2300;51.874;8.430;2023-12-22T07:17:54;99167.88;;;5.00;84.29
4576;BME280;2300;51.874;8.430;2023-12-22T07:20:20;99174.63;;;4.97;84.82
4576;BME280;2300;51.874;8.430;2023-12-22T07:22:47;99177.56;;;4.96;84.45
4576;BME280;2300;51.874;8.430;2023-12-22T07:25:13;99178.03;;;5.04;84.51
4576;BME280;2300;51.874;8.430;2023-12-22T07:27:41;99184.44;;;5.10;84.33
4576;BME280;2300;51.874;8.430;2023-12-22T07:30:09;99171.06;;;5.08;84.59
4576;BME280;2300;51.874;8.430;2023-12-22T07:32:41;99179.81;;;4.99;84.78
4576;BME280;2300;51.874;8.430;2023-12-22T07:35:09;99185.50;;;5.09;85.19
4576;BME280;2300;51.874;8.430;2023-12-22T07:37:35;99183.88;;;5.08;84.93
4576;BME280;2300;51.874;8.430;2023-12-22T07:40:02;99179.09;;;5.03;84.75
4576;BME280;2300;51.874;8.430;2023-12-22T07:42:29;99176.97;;;5.05;84.87
4576;BME280;2300;51.874;8.430;2023-12-22T07:44:57;99176.16;;;5.05;85.12
4576;BME280;2300;51.874;8.430;2023-12-22T07:47:23;99176.91;;;5.12;84.79
4576;BME280;2300;51.874;8.430;2023-12-22T07:49:50;99176.06;;;5.11;84.20
4576;BME280;2300;51.874;8.430;2023-12-22T07:52:16;99195.81;;;5.18;84.39
4576;BME280;2300;51.874;8.430;2023-12-22T07:54:43;99209.91;;;5.15;84.58
4576;BME280;2300;51.874;8.430;2023-12-22T07:57:09;99224.81;;;5.24;84.09
4576;BME280;2300;51.874;8.430;2023-12-22T07:59:36;99209.34;;;5.25;83.81
4576;BME280;2300;51.874;8.430;2023-12-22T08:02:04;99210.91;;;5.32;83.72
4576;BME280;2300;51.874;8.430;2023-12-22T08:04:31;99211.38;;;5.41;83.27
4576;BME280;2300;51.874;8.430;2023-12-22T08:06:57;99211.59;;;5.40;83.35
4576;BME280;2300;51.874;8.430;2023-12-22T08:09:24;99216.47;;;5.38;83.54
4576;BME280;2300;51.874;8.430;2023-12-22T08:11:50;99213.16;;;5.47;83.36
4576;BME280;2300;51.874;8.430;2023-12-22T08:14:19;99221.09;;;5.49;83.02
4576;BME280;2300;51.874;8.430;2023-12-22T08:16:45;99238.03;;;5.51;83.17
4576;BME280;2300;51.874;8.430;2023-12-22T08:19:13;99239.56;;;5.47;83.47
4576;BME280;2300;51.874;8.430;2023-12-22T08:21:39;99230.78;;;5.45;84.16
4576;BME280;2300;51.874;8.430;2023-12-22T08:24:08;99220.75;;;5.57;83.33
4576;BME280;2300;51.874;8.430;2023-12-22T08:26:36;99221.34;;;5.59;83.06
4576;BME280;2300;51.874;8.430;2023-12-22T08:29:03;99227.25;;;5.56;83.04
4576;BME280;2300;51.874;8.430;2023-12-22T08:31:29;99235.53;;;5.61;82.52
4576;BME280;2300;51.874;8.430;2023-12-22T08:33:56;99215.66;;;5.72;82.63
4576;BME280;2300;51.874;8.430;2023-12-22T08:36:24;99232.63;;;5.74;82.66
4576;BME280;2300;51.874;8.430;2023-12-22T08:38:50;99230.84;;;5.68;83.39
4576;BME280;2300;51.874;8.430;2023-12-22T08:41:17;99230.34;;;5.71;83.59
4576;BME280;2300;51.874;8.430;2023-12-22T08:43:43;99239.84;;;5.68;83.94
4576;BME280;2300;51.874;8.430;2023-12-22T08:46:10;99248.72;;;5.64;84.32
4576;BME280;2300;51.874;8.430;2023-12-22T08:48:37;99245.38;;;5.62;85.01
4576;BME280;2300;51.874;8.430;2023-12-22T08:51:04;99250.00;;;5.61;84.93
4576;BME280;2300;51.874;8.430;2023-12-22T08:53:32;99252.56;;;5.45;85.78
4576;BME280;2300;51.874;8.430;2023-12-22T08:56:02;99253.41;;;5.45;86.04
4576;BME280;2300;51.874;8.430;2023-12-22T08:58:29;99265.22;;;5.27;86.66
4576;BME280;2300;51.874;8.430;2023-12-22T09:00:56;99271.44;;;5.16;87.41
4576;BME280;2300;51.874;8.430;2023-12-22T09:03:22;99252.97;;;5.18;87.11
4576;BME280;2300;51.874;8.430;2023-12-22T09:05:49;99249.56;;;5.23;87.09
4576;BME280;2300;51.874;8.430;2023-12-22T09:08:16;99254.56;;;5.38;87.22
4576;BME280;2300;51.874;8.430;2023-12-22T09:10:44;99245.31;;;5.27;87.52
4576;BME280;2300;51.874;8.430;2023-12-22T09:13:11;99248.75;;;5.22;88.14
4576;BME280;2300;51.874;8.430;2023-12-22T09:15:37;99245.41;;;5.20;88.63
4576;BME280;2300;51.874;8.430;2023-12-22T09:18:04;99249.09;;;5.26;89.23
4576;BME280;2300;51.874;8.430;2023-12-22T09:20:31;99256.56;;;5.30;88.67
4576;BME280;2300;51.874;8.430;2023-12-22T09:22:57;99256.66;;;5.24;89.20
4576;BME280;2300;51.874;8.430;2023-12-22T09:25:24;99259.06;;;5.32;89.41
4576;BME280;2300;51.874;8.430;2023-12-22T09:27:52;99274.81;;;5.42;89.47
4576;BME280;2300;51.874;8.430;2023-12-22T09:30:19;99277.53;;;5.42;89.55
4576;BME280;2300;51.874;8.430;2023-12-22T09:32:46;99273.63;;;5.38;89.69
4576;BME280;2300;51.874;8.430;2023-12-22T09:35:14;99264.28;;;5.33;90.37
4576;BME280;2300;51.874;8.430;2023-12-22T09:37:41;99263.94;;;5.42;90.03
4576;BME280;2300;51.874;8.430;2023-12-22T09:40:09;99271.03;;;5.43;90.23
4576;BME280;2300;51.874;8.430;2023-12-22T09:42:37;99278.16;;;5.44;90.09
4576;BME280;2300;51.874;8.430;2023-12-22T09:45:11;99255.63;;;5.37;90.28
4576;BME280;2300;51.874;8.430;2023-12-22T09:47:38;99251.94;;;5.31;90.99
4576;BME280;2300;51.874;8.430;2023-12-22T09:50:07;99257.31;;;5.38;91.03
4576;BME280;2300;51.874;8.430;2023-12-22T09:52:35;99246.63;;;5.36;91.86
4576;BME280;2300;51.874;8.430;2023-12-22T09:55:03;99255.81;;;5.53;91.35
4576;BME280;2300;51.874;8.430;2023-12-22T09:57:31;99247.38;;;5.55;90.67
4576;BME280;2300;51.874;8.430;2023-12-22T09:59:59;99257.47;;;5.66;90.70
4576;BME280;2300;51.874;8.430;2023-12-22T10:02:29;99230.34;;;5.71;90.38
4576;BME280;2300;51.874;8.430;2023-12-22T10:04:56;99243.75;;;5.72;91.24
4576;BME280;2300;51.874;8.430;2023-12-22T10:07:23;99250.50;;;5.70;90.54
4576;BME280;2300;51.874;8.430;2023-12-22T10:09:50;99246.56;;;5.66;90.13
4576;BME280;2300;51.874;8.430;2023-12-22T10:12:19;99232.34;;;5.75;90.07
4576;BME280;2300;51.874;8.430;2023-12-22T10:14:47;99225.13;;;5.81;90.36
4576;BME280;2300;51.874;8.430;2023-12-22T10:17:14;99218.63;;;5.82;90.38
4576;BME280;2300;51.874;8.430;2023-12-22T10:19:43;99234.25;;;5.87;90.02
4576;BME280;2300;51.874;8.430;2023-12-22T10:22:10;99241.63;;;5.98;89.95
4576;BME280;2300;51.874;8.430;2023-12-22T10:24:37;99198.03;;;5.74;90.17
4576;BME280;2300;51.874;8.430;2023-12-22T10:27:04;99220.06;;;5.85;90.08
4576;BME280;2300;51.874;8.430;2023-12-22T10:29:31;99219.69;;;5.81;90.36
4576;BME280;2300;51.874;8.430;2023-12-22T10:31:57;99201.00;;;5.85;90.39
4576;BME280;2300;51.874;8.430;2023-12-22T10:34:24;99207.28;;;5.85;90.58
4576;BME280;2300;51.874;8.430;2023-12-22T10:36:53;99185.47;;;5.85;91.55
4576;BME280;2300;51.874;8.430;2023-12-22T10:39:20;99182.28;;;5.65;91.92
4576;BME280;2300;51.874;8.430;2023-12-22T10:41:47;99171.97;;;5.67;92.77
4576;BME280;2300;51.874;8.430;2023-12-22T10:44:14;99169.34;;;5.60;92.91
4576;BME280;2300;51.874;8.430;2023-12-22T10:46:42;99169.72;;;5.52;92.65
4576;BME280;2300;51.874;8.430;2023-12-22T10:49:09;99166.16;;;5.52;93.08
4576;BME280;2300;51.874;8.430;2023-12-22T10:51:36;99151.38;;;5.48;94.01
4576;BME280;2300;51.874;8.430;2023-12-22T10:54:05;99162.72;;;5.45;95.26
4576;BME280;2300;51.874;8.430;2023-12-22T10:56:31;99174.09;;;5.42;96.18
4576;BME280;2300;51.874;8.430;2023-12-22T10:58:58;99173.50;;;5.40;96.31
4576;BME280;2300;51.874;8.430;2023-12-22T11:01:28;99165.44;;;5.45;96.91
4576;BME280;2300;51.874;8.430;2023-12-22T11:03:58;99160.84;;;5.57;96.66
4576;BME280;2300;51.874;8.430;2023-12-22T11:06:29;99155.16;;;5.47;97.51
4576;BME280;2300;51.874;8.430;2023-12-22T11:08:57;99150.66;;;5.41;97.39
4576;BME280;2300;51.874;8.430;2023-12-22T11:11:27;99164.50;;;5.51;97.21
4576;BME280;2300;51.874;8.430;2023-12-22T11:13:56;99166.50;;;5.55;96.89
4576;BME280;2300;51.874;8.430;2023-12-22T11:16:24;99180.97;;;5.56;96.50
4576;BME280;2300;51.874;8.430;2023-12-22T11:18:53;99157.78;;;5.65;96.26
4576;BME280;2300;51.874;8.430;2023-12-22T11:21:21;99155.84;;;5.65;96.05
4576;BME280;2300;51.874;8.430;2023-12-22T11:23:49;99143.19;;;5.71;96.16
4576;BME280;2300;51.874;8.430;2023-12-22T11:26:16;99143.91;;;5.78;96.39
4576;BME280;2300;51.874;8.430;2023-12-22T11:28:45;99104.94;;;5.78;96.50
4576;BME280;2300;51.874;8.430;2023-12-22T11:31:12;99136.34;;;5.80;97.06
4576;BME280;2300;51.874;8.430;2023-12-22T11:33:43;99134.69;;;5.79;96.70
4576;BME280;2300;51.874;8.430;2023-12-22T11:36:11;99134.50;;;5.97;96.85
4576;BME280;2300;51.874;8.430;2023-12-22T11:38:38;99138.69;;;5.88;96.76
4576;BME280;2300;51.874;8.430;2023-12-22T11:41:05;99135.97;;;5.88;96.87
4576;BME280;2300;51.874;8.430;2023-12-22T11:43:35;99150.28;;;5.95;96.60
4576;BME280;2300;51.874;8.430;2023-12-22T11:46:04;99118.34;;;5.67;96.29
4576;BME280;2300;51.874;8.430;2023-12-22T11:48:30;99131.22;;;5.84;96.59
4576;BME280;2300;51.874;8.430;2023-12-22T11:50:57;99133.72;;;5.85;96.00
4576;BME280;2300;51.874;8.430;2023-12-22T11:53:25;99123.41;;;5.87;95.72
4576;BME280;2300;51.874;8.430;2023-12-22T11:56:02;99126.59;;;5.96;95.55
4576;BME280;2300;51.874;8.430;2023-12-22T11:58:36;99113.78;;;5.96;95.51
4576;BME280;2300;51.874;8.430;2023-12-22T12:01:07;99112.00;;;6.02;94.67
4576;BME280;2300;51.874;8.430;2023-12-22T12:03:37;99119.72;;;5.93;94.54
4576;BME280;2300;51.874;8.430;2023-12-22T12:06:22;99124.94;;;5.95;94.15
4576;BME280;2300;51.874;8.430;2023-12-22T12:08:48;99120.94;;;5.74;94.07
4576;BME280;2300;51.874;8.430;2023-12-22T12:11:16;99095.59;;;5.85;93.62
4576;BME280;2300;51.874;8.430;2023-12-22T12:13:44;99091.78;;;5.86;93.24
4576;BME280;2300;51.874;8.430;2023-12-22T12:16:13;99106.00;;;5.88;93.26
4576;BME280;2300;51.874;8.430;2023-12-22T12:18:41;99096.25;;;5.92;93.29
4576;BME280;2300;51.874;8.430;2023-12-22T12:21:08;99090.25;;;5.79;93.82
4576;BME280;2300;51.874;8.430;2023-12-22T12:23:36;99068.13;;;5.75;94.22
4576;BME280;2300;51.874;8.430;2023-12-22T12:26:05;99074.25;;;5.82;94.02
4576;BME280;2300;51.874;8.430;2023-12-22T12:28:33;99082.53;;;5.87;94.29
4576;BME280;2300;51.874;8.430;2023-12-22T12:31:02;99079.59;;;5.77;94.58
4576;BME280;2300;51.874;8.430;2023-12-22T12:33:32;99088.94;;;5.81;93.64
4576;BME280;2300;51.874;8.430;2023-12-22T12:36:00;99082.66;;;5.81;94.05
4576;BME280;2300;51.874;8.430;2023-12-22T12:38:37;99094.03;;;5.89;93.30
4576;BME280;2300;51.874;8.430;2023-12-22T12:41:09;99083.69;;;5.91;93.23
4576;BME280;2300;51.874;8.430;2023-12-22T12:43:36;99088.19;;;5.97;92.79
4576;BME280;2300;51.874;8.430;2023-12-22T12:46:07;99091.66;;;5.93;93.14
4576;BME280;2300;51.874;8.430;2023-12-22T12:48:35;99083.47;;;5.93;92.32
4576;BME280;2300;51.874;8.430;2023-12-22T12:51:03;99085.09;;;6.05;92.08
4576;BME280;2300;51.874;8.430;2023-12-22T12:53:30;99059.03;;;6.09;91.60
4576;BME280;2300;51.874;8.430;2023-12-22T12:55:58;99067.19;;;6.09;91.66
4576;BME280;2300;51.874;8.430;2023-12-22T12:58:27;99057.13;;;6.10;91.04
4576;BME280;2300;51.874;8.430;2023-12-22T13:01:03;99063.03;;;6.07;90.62
4576;BME280;2300;51.874;8.430;2023-12-22T13:03:30;99078.00;;;6.04;90.69
4576;BME280;2300;51.874;8.430;2023-12-22T13:06:07;99067.94;;;6.05;90.55
4576;BME280;2300;51.874;8.430;2023-12-22T13:08:33;99068.97;;;6.15;90.55
4576;BME280;2300;51.874;8.430;2023-12-22T13:11:01;99079.88;;;6.15;91.35
4576;BME280;2300;51.874;8.430;2023-12-22T13:13:28;99066.81;;;6.17;91.32
4576;BME280;2300;51.874;8.430;2023-12-22T13:15:55;99082.94;;;6.07;92.70
4576;BME280;2300;51.874;8.430;2023-12-22T13:18:21;99062.38;;;6.00;93.69
4576;BME280;2300;51.874;8.430;2023-12-22T13:20:48;99073.78;;;5.85;94.55
4576;BME280;2300;51.874;8.430;2023-12-22T13:23:18;99074.47;;;5.92;94.90
4576;BME280;2300;51.874;8.430;2023-12-22T13:25:44;99087.16;;;5.87;95.61
4576;BME280;2300;51.874;8.430;2023-12-22T13:28:11;99079.34;;;5.90;95.37
4576;BME280;2300;51.874;8.430;2023-12-22T13:30:38;99090.72;;;5.87;95.87
4576;BME280;2300;51.874;8.430;2023-12-22T13:33:06;99098.41;;;5.90;96.15